createdAt,value
2023-04-29T00:02:32.653Z,97839.28
2023-04-29T00:05:36.048Z,97841.22
2023-04-29T00:08:39.021Z,97840.41
2023-04-29T00:11:41.800Z,97850.56
2023-04-29T00:14:44.724Z,97842.97
2023-04-29T00:17:48.977Z,97836.00
2023-04-29T00:20:51.804Z,97840.09
2023-04-29T00:23:54.696Z,97848.38
2023-04-29T00:26:57.548Z,97836.72
2023-04-29T00:30:00.331Z,97838.09
2023-04-29T00:33:04.578Z,97840.59
2023-04-29T00:36:07.699Z,97839.78
2023-04-29T00:39:10.527Z,97842.47
2023-04-29T00:42:13.605Z,97833.91
2023-04-29T00:45:16.313Z,97840.41
2023-04-29T00:48:20.377Z,97850.88
2023-04-29T00:51:23.597Z,97841.22
2023-04-29T00:54:26.354Z,97843.59
2023-04-29T00:57:30.141Z,97855.38
2023-04-29T01:00:33.814Z,97852.56
2023-04-29T01:03:38.299Z,97851.47
2023-04-29T01:06:57.237Z,97851.78
2023-04-29T01:10:05.100Z,97853.69
2023-04-29T01:13:10.787Z,97855.06
2023-04-29T01:16:22.514Z,97857.25
2023-04-29T01:19:44.161Z,97852.47
2023-04-29T01:22:47.415Z,97854.47
2023-04-29T01:25:51.537Z,97852.34
2023-04-29T01:29:01.738Z,97860.25
2023-04-29T01:32:09.129Z,97859.94
2023-04-29T01:35:23.632Z,97859.44
2023-04-29T01:38:35.198Z,97857.75
2023-04-29T01:41:44.649Z,97856.16
2023-04-29T01:44:48.943Z,97859.63
2023-04-29T01:47:55.947Z,97858.84
2023-04-29T01:50:58.680Z,97853.75
2023-04-29T01:54:01.511Z,97859.44
2023-04-29T01:57:05.684Z,97852.03
2023-04-29T02:00:10.265Z,97851.09
2023-04-29T02:03:13.117Z,97854.47
2023-04-29T02:06:15.920Z,97855.94
2023-04-29T02:09:19.000Z,97856.81
2023-04-29T02:12:23.310Z,97857.44
2023-04-29T02:15:27.619Z,97855.34
2023-04-29T02:18:30.267Z,97853.72
2023-04-29T02:21:33.057Z,97860.13
2023-04-29T02:24:35.829Z,97858.31
2023-04-29T02:27:40.049Z,97860.78
2023-04-29T02:30:42.854Z,97863.88
2023-04-29T02:33:45.634Z,97870.63
2023-04-29T02:36:48.384Z,97863.63
2023-04-29T02:39:51.603Z,97861.03
2023-04-29T02:42:55.845Z,97868.31
2023-04-29T02:45:58.636Z,97869.19
2023-04-29T02:49:01.981Z,97863.59
2023-04-29T02:52:04.931Z,97864.75
2023-04-29T02:55:08.505Z,97859.75
2023-04-29T02:58:12.566Z,97870.56
2023-04-29T03:01:15.344Z,97873.34
2023-04-29T03:04:18.352Z,97875.31
2023-04-29T03:07:21.145Z,97876.19
2023-04-29T03:10:24.119Z,97871.94
2023-04-29T03:13:28.301Z,97874.22
2023-04-29T03:16:31.427Z,97879.16
2023-04-29T03:19:34.280Z,97883.78
2023-04-29T03:22:37.132Z,97875.78
2023-04-29T03:25:40.603Z,97879.91
2023-04-29T03:28:44.779Z,97875.34
2023-04-29T03:31:47.559Z,97871.38
2023-04-29T03:34:50.498Z,97874.88
2023-04-29T03:37:53.539Z,97870.06
2023-04-29T03:40:56.351Z,97862.56
2023-04-29T03:44:01.072Z,97865.00
2023-04-29T03:47:03.737Z,97869.03
2023-04-29T03:50:08.110Z,97870.91
2023-04-29T03:53:11.864Z,97870.41
2023-04-29T03:56:15.429Z,97874.72
2023-04-29T03:59:20.577Z,97871.44
2023-04-29T04:02:23.317Z,97876.75
2023-04-29T04:05:26.922Z,97870.59
2023-04-29T04:08:29.636Z,97869.75
2023-04-29T04:11:32.345Z,97882.53
2023-04-29T04:14:36.470Z,97885.09
2023-04-29T04:17:39.171Z,97889.59
2023-04-29T04:20:41.903Z,97890.03
2023-04-29T04:23:44.852Z,97903.78
2023-04-29T04:26:47.508Z,97906.63
2023-04-29T04:29:54.683Z,97902.47
2023-04-29T04:32:57.582Z,97909.09
2023-04-29T04:36:00.387Z,97911.56
2023-04-29T04:39:03.091Z,97913.31
2023-04-29T04:42:05.853Z,97921.97
2023-04-29T04:45:11.582Z,97926.53
2023-04-29T04:48:14.360Z,97920.88
2023-04-29T04:51:17.118Z,97925.75
2023-04-29T04:54:19.883Z,97933.00
2023-04-29T04:57:23.576Z,97930.25
2023-04-29T05:00:27.644Z,97936.78
2023-04-29T05:03:30.683Z,97933.44
2023-04-29T05:06:33.558Z,97946.00
2023-04-29T05:09:36.477Z,97953.69
2023-04-29T05:12:39.298Z,97965.97
2023-04-29T05:15:44.475Z,97961.63
2023-04-29T05:18:47.181Z,97960.44
2023-04-29T05:21:49.913Z,97969.44
2023-04-29T05:24:54.205Z,97975.00
2023-04-29T05:27:57.148Z,97981.59
2023-04-29T05:31:01.250Z,97985.13
2023-04-29T05:34:04.237Z,97988.69
2023-04-29T05:37:07.039Z,97992.28
2023-04-29T05:40:10.698Z,97995.47
2023-04-29T05:43:13.838Z,97988.28
2023-04-29T05:46:18.019Z,97986.41
2023-04-29T05:49:20.749Z,97986.78
2023-04-29T05:52:23.476Z,98000.09
2023-04-29T05:55:26.248Z,97998.41
2023-04-29T05:58:28.964Z,98006.00
2023-04-29T06:01:33.104Z,98016.28
2023-04-29T06:04:36.425Z,98018.78
2023-04-29T06:07:41.418Z,98027.56
2023-04-29T06:10:44.304Z,98022.47
2023-04-29T06:13:46.978Z,98033.34
2023-04-29T06:16:50.961Z,98028.38
2023-04-29T06:19:53.921Z,98034.97
2023-04-29T06:22:56.894Z,98041.94
2023-04-29T06:25:59.690Z,98055.41
2023-04-29T06:29:02.436Z,98059.13
2023-04-29T06:32:06.769Z,98052.13
2023-04-29T06:35:09.966Z,98064.00
2023-04-29T06:38:12.626Z,98063.72
2023-04-29T06:41:15.472Z,98061.31
2023-04-29T06:44:18.781Z,98063.66
2023-04-29T06:47:23.373Z,98080.53
2023-04-29T06:50:26.308Z,98080.41
2023-04-29T06:53:29.235Z,98082.31
2023-04-29T06:56:31.883Z,98084.53
2023-04-29T06:59:34.623Z,98086.91
2023-04-29T07:02:39.122Z,98092.81
2023-04-29T07:05:42.931Z,98092.50
2023-04-29T07:08:45.625Z,98096.72
2023-04-29T07:11:48.271Z,98101.50
2023-04-29T07:14:51.070Z,98100.03
2023-04-29T07:17:55.245Z,98105.63
2023-04-29T07:21:02.278Z,98110.00
2023-04-29T07:24:05.607Z,98111.16
2023-04-29T07:27:08.386Z,98112.38
2023-04-29T07:30:11.574Z,98111.88
2023-04-29T07:33:16.047Z,98112.75
2023-04-29T07:36:18.803Z,98111.47
2023-04-29T07:39:21.785Z,98114.47
2023-04-29T07:42:24.595Z,98119.91
2023-04-29T07:45:27.770Z,98122.56
2023-04-29T07:48:32.010Z,98128.97
2023-04-29T07:51:34.816Z,98127.69
2023-04-29T07:54:37.856Z,98128.19
2023-04-29T07:57:40.589Z,98131.59
2023-04-29T08:00:43.510Z,98132.69
2023-04-29T08:03:47.811Z,98129.59
2023-04-29T08:06:50.913Z,98143.50
2023-04-29T08:09:53.553Z,98144.91
2023-04-29T08:12:56.278Z,98141.72
2023-04-29T08:15:59.014Z,98144.59
2023-04-29T08:19:03.164Z,98147.38
2023-04-29T08:22:05.854Z,98148.31
2023-04-29T08:25:09.742Z,98153.00
2023-04-29T08:28:13.125Z,98156.69
2023-04-29T08:31:19.698Z,98158.78
2023-04-29T08:34:23.900Z,98159.28
2023-04-29T08:37:27.290Z,98160.88
2023-04-29T08:40:30.141Z,98163.19
2023-04-29T08:43:34.456Z,98163.59
2023-04-29T08:46:37.531Z,98169.47
2023-04-29T08:49:42.339Z,98168.00
2023-04-29T08:52:45.126Z,98167.91
2023-04-29T08:55:49.420Z,98171.66
2023-04-29T08:58:54.629Z,98172.97
2023-04-29T09:01:58.514Z,98170.38
2023-04-29T09:05:11.263Z,98178.75
2023-04-29T09:08:14.893Z,98176.41
2023-04-29T09:11:18.042Z,98163.94
2023-04-29T09:14:21.890Z,98172.50
2023-04-29T09:17:39.839Z,98178.25
2023-04-29T09:20:44.164Z,98180.66
2023-04-29T09:23:47.561Z,98173.31
2023-04-29T09:26:51.754Z,98175.63
2023-04-29T09:30:02.319Z,98180.38
2023-04-29T09:33:07.585Z,98192.00
2023-04-29T09:36:12.138Z,98184.06
2023-04-29T09:39:17.337Z,98184.06
2023-04-29T09:42:20.091Z,98191.22
2023-04-29T09:45:34.722Z,98187.78
2023-04-29T09:48:38.728Z,98194.09
2023-04-29T09:51:53.552Z,98193.09
2023-04-29T09:55:06.704Z,98193.34
2023-04-29T09:58:09.400Z,98193.47
2023-04-29T10:01:13.562Z,98200.84
2023-04-29T10:04:18.538Z,98188.41
2023-04-29T10:07:23.307Z,98195.59
2023-04-29T10:10:29.553Z,98193.81
2023-04-29T10:13:38.394Z,98183.38
2023-04-29T10:16:47.786Z,98182.94
2023-04-29T10:19:57.457Z,98187.16
2023-04-29T10:23:02.093Z,98194.81
2023-04-29T10:26:05.221Z,98189.03
2023-04-29T10:29:10.330Z,98193.06
2023-04-29T10:32:15.543Z,98176.59
2023-04-29T10:35:20.155Z,98171.19
2023-04-29T10:38:29.672Z,98179.97
2023-04-29T10:41:38.864Z,98178.34
2023-04-29T10:45:19.902Z,98176.59
2023-04-29T10:48:24.624Z,98174.16
2023-04-29T10:51:34.841Z,98167.78
2023-04-29T10:54:40.746Z,98173.84
2023-04-29T10:57:43.669Z,98173.03
2023-04-29T11:00:46.398Z,98168.25
2023-04-29T11:03:55.032Z,98167.94
2023-04-29T11:06:59.639Z,98160.31
2023-04-29T11:10:05.058Z,98163.19
2023-04-29T11:13:22.912Z,98163.06
2023-04-29T11:16:29.268Z,98154.25
2023-04-29T11:19:33.720Z,98161.25
2023-04-29T11:22:36.467Z,98157.59
2023-04-29T11:25:40.683Z,98165.94
2023-04-29T11:28:44.812Z,98164.00
2023-04-29T11:31:48.039Z,98157.13
2023-04-29T11:34:51.048Z,98162.56
2023-04-29T11:37:55.008Z,98166.69
2023-04-29T11:41:00.935Z,98164.75
2023-04-29T11:44:05.033Z,98167.66
2023-04-29T11:47:07.946Z,98166.72
2023-04-29T11:50:11.273Z,98172.47
2023-04-29T11:53:14.160Z,98175.00
2023-04-29T11:56:18.281Z,98172.00
2023-04-29T11:59:21.409Z,98168.78
2023-04-29T12:02:24.525Z,98169.88
2023-04-29T12:05:27.868Z,98174.53
2023-04-29T12:08:33.698Z,98178.03
2023-04-29T12:11:38.272Z,98175.50
2023-04-29T12:14:42.319Z,98180.28
2023-04-29T12:17:46.390Z,98182.03
2023-04-29T12:20:49.279Z,98174.34
2023-04-29T12:23:52.873Z,98173.03
2023-04-29T12:26:59.615Z,98184.97
2023-04-29T12:30:02.561Z,98173.91
2023-04-29T12:33:06.580Z,98176.66
2023-04-29T12:36:17.701Z,98177.47
2023-04-29T12:39:21.348Z,98189.00
2023-04-29T12:42:25.806Z,98185.81
2023-04-29T12:45:30.666Z,98186.13
2023-04-29T12:48:34.156Z,98192.19
2023-04-29T12:51:37.173Z,98197.94
2023-04-29T12:54:41.903Z,98196.22
2023-04-29T12:57:46.297Z,98202.31
2023-04-29T13:00:49.797Z,98198.75
2023-04-29T13:03:53.068Z,98192.28
2023-04-29T13:07:00.264Z,98194.00
2023-04-29T13:10:03.593Z,98196.22
2023-04-29T13:13:09.697Z,98191.94
2023-04-29T13:16:12.693Z,98205.31
2023-04-29T13:19:30.558Z,98198.00
2023-04-29T13:22:38.611Z,98200.66
2023-04-29T13:25:41.570Z,98205.75
2023-04-29T13:28:45.859Z,98203.28
2023-04-29T13:31:48.674Z,98205.81
2023-04-29T13:34:51.850Z,98195.00
2023-04-29T13:37:54.706Z,98199.88
2023-04-29T13:40:57.612Z,98203.13
2023-04-29T13:44:02.515Z,98199.22
2023-04-29T13:47:06.174Z,98206.09
2023-04-29T13:50:48.507Z,98208.09
2023-04-29T13:54:17.308Z,98214.13
2023-04-29T13:57:40.151Z,98210.50
2023-04-29T14:00:54.030Z,98212.44
2023-04-29T14:03:42.539Z,98208.19
2023-04-29T14:06:45.709Z,98220.78
2023-04-29T14:09:49.282Z,98218.72
2023-04-29T14:12:51.949Z,98220.13
2023-04-29T14:15:56.613Z,98212.50
2023-04-29T14:19:01.973Z,98215.88
2023-04-29T14:22:06.245Z,98202.06
2023-04-29T14:25:09.976Z,98209.44
2023-04-29T14:28:12.810Z,98209.50
2023-04-29T14:31:18.453Z,98213.00
2023-04-29T14:34:21.214Z,98221.28
2023-04-29T14:37:23.957Z,98227.00
2023-04-29T14:40:26.919Z,98225.63
2023-04-29T14:43:29.904Z,98236.84
2023-04-29T14:46:34.207Z,98233.03
2023-04-29T14:49:36.922Z,98247.44
2023-04-29T14:52:39.653Z,98238.34
2023-04-29T14:59:03.412Z,98247.59
2023-04-29T15:02:14.895Z,98253.84
2023-04-29T15:05:28.686Z,98258.16
2023-04-29T15:08:35.785Z,98254.78
2023-04-29T15:11:41.577Z,98271.03
2023-04-29T15:14:49.046Z,98266.03
2023-04-29T15:17:53.419Z,98268.69
2023-04-29T15:20:59.624Z,98267.03
2023-04-29T15:24:14.077Z,98274.44
2023-04-29T15:27:20.067Z,98276.97
2023-04-29T15:30:32.439Z,98279.09
2023-04-29T15:33:41.495Z,98292.47
2023-04-29T15:36:48.459Z,98287.03
2023-04-29T15:39:54.949Z,98292.41
2023-04-29T15:43:04.008Z,98288.59
2023-04-29T15:46:14.408Z,98301.03
2023-04-29T15:49:24.022Z,98297.34
2023-04-29T15:52:34.244Z,98307.00
2023-04-29T15:55:52.160Z,98292.28
2023-04-29T15:59:08.943Z,98307.53
2023-04-29T16:02:35.870Z,98303.16
2023-04-29T16:09:23.316Z,98305.19
2023-04-29T16:12:46.226Z,98311.72
2023-04-29T16:15:57.912Z,98308.09
2023-04-29T16:19:05.468Z,98307.69
2023-04-29T16:22:13.129Z,98307.19
2023-04-29T16:25:19.153Z,98313.53
2023-04-29T16:28:24.908Z,98315.44
2023-04-29T16:31:30.725Z,98312.84
2023-04-29T16:34:38.048Z,98319.38
2023-04-29T16:37:54.947Z,98320.75
2023-04-29T16:44:38.279Z,98324.28
2023-04-29T16:47:44.821Z,98323.47
2023-04-29T16:50:54.374Z,98329.09
2023-04-29T16:54:00.861Z,98325.66
2023-04-29T16:57:08.950Z,98323.97
2023-04-29T17:00:18.871Z,98326.28
2023-04-29T17:03:26.416Z,98335.25
2023-04-29T17:06:31.776Z,98330.53
2023-04-29T17:09:41.391Z,98332.16
2023-04-29T17:12:53.751Z,98332.03
2023-04-29T17:16:15.092Z,98336.66
2023-04-29T17:19:18.657Z,98330.06
2023-04-29T17:22:22.179Z,98327.81
2023-04-29T17:25:25.159Z,98333.03
2023-04-29T17:28:29.323Z,98332.53
2023-04-29T17:31:45.113Z,98330.13
2023-04-29T17:34:48.200Z,98333.03
2023-04-29T17:37:50.937Z,98333.94
2023-04-29T17:40:53.732Z,98338.84
2023-04-29T17:43:56.532Z,98342.94
2023-04-29T17:47:00.609Z,98340.84
2023-04-29T17:50:03.889Z,98339.22
2023-04-29T17:53:06.746Z,98334.44
2023-04-29T17:56:09.497Z,98342.03
2023-04-29T17:59:12.373Z,98337.81
2023-04-29T18:02:16.568Z,98347.00
2023-04-29T18:05:20.561Z,98337.81
2023-04-29T18:08:23.359Z,98346.13
2023-04-29T18:11:26.189Z,98355.22
2023-04-29T18:14:30.676Z,98354.69
2023-04-29T18:17:35.030Z,98353.38
2023-04-29T18:20:40.375Z,98358.38
2023-04-29T18:23:43.526Z,98361.59
2023-04-29T18:26:46.738Z,98357.34
2023-04-29T18:29:49.810Z,98355.53
2023-04-29T18:32:54.152Z,98351.63
2023-04-29T18:35:56.845Z,98358.28
2023-04-29T18:38:59.483Z,98360.81
2023-04-29T18:42:02.881Z,98353.84
2023-04-29T18:45:06.633Z,98360.41
2023-04-29T18:48:12.325Z,98368.28
2023-04-29T18:51:18.098Z,98364.09
2023-04-29T18:54:21.098Z,98364.16
2023-04-29T18:57:24.069Z,98372.09
2023-04-29T19:00:27.304Z,98380.03
2023-04-29T19:03:31.477Z,98386.91
2023-04-29T19:06:34.424Z,98388.66
2023-04-29T19:09:37.116Z,98394.38
2023-04-29T19:12:40.030Z,98395.28
2023-04-29T19:15:43.288Z,98394.03
2023-04-29T19:18:48.784Z,98399.50
2023-04-29T19:21:51.731Z,98403.41
2023-04-29T19:24:54.802Z,98403.44
2023-04-29T19:27:57.566Z,98412.47
2023-04-29T19:31:00.558Z,98416.31
2023-04-29T19:34:04.715Z,98414.50
2023-04-29T19:37:07.446Z,98419.38
2023-04-29T19:40:11.450Z,98418.59
2023-04-29T19:43:14.333Z,98415.97
2023-04-29T19:46:17.110Z,98418.94
2023-04-29T19:49:21.370Z,98416.03
2023-04-29T19:52:25.136Z,98419.25
2023-04-29T19:55:28.229Z,98420.63
2023-04-29T19:58:31.028Z,98413.97
2023-04-29T20:01:33.974Z,98416.13
2023-04-29T20:04:38.284Z,98426.91
2023-04-29T20:07:41.381Z,98434.47
2023-04-29T20:10:44.131Z,98421.84
2023-04-29T20:13:46.964Z,98427.50
2023-04-29T20:16:49.746Z,98426.16
2023-04-29T20:19:54.234Z,98417.56
2023-04-29T20:23:00.230Z,98424.28
2023-04-29T20:26:03.876Z,98425.06
2023-04-29T20:29:06.694Z,98429.88
2023-04-29T20:32:09.504Z,98437.69
2023-04-29T20:35:13.664Z,98437.16
2023-04-29T20:38:16.584Z,98432.56
2023-04-29T20:41:19.326Z,98431.44
2023-04-29T20:44:22.512Z,98438.69
2023-04-29T20:47:25.314Z,98440.78
2023-04-29T20:50:29.372Z,98449.66
2023-04-29T20:53:32.260Z,98441.28
2023-04-29T20:56:35.101Z,98447.47
2023-04-29T20:59:37.835Z,98448.78
2023-04-29T21:02:40.787Z,98446.84
2023-04-29T21:05:44.893Z,98446.31
2023-04-29T21:08:47.737Z,98450.06
2023-04-29T21:11:50.524Z,98447.09
2023-04-29T21:14:53.260Z,98456.50
2023-04-29T21:17:56.437Z,98452.69
2023-04-29T21:21:00.540Z,98449.50
2023-04-29T21:24:03.401Z,98448.13
2023-04-29T21:27:06.229Z,98452.69
2023-04-29T21:30:09.797Z,98451.00
2023-04-29T21:33:12.547Z,98456.09
2023-04-29T21:36:16.704Z,98453.09
2023-04-29T21:39:19.526Z,98442.88
2023-04-29T21:42:25.424Z,98436.41
2023-04-29T21:45:28.347Z,98437.72
2023-04-29T21:48:31.177Z,98433.66
2023-04-29T21:51:35.833Z,98446.06
2023-04-29T21:54:38.750Z,98447.13
2023-04-29T21:57:44.870Z,98450.63
2023-04-29T22:00:58.348Z,98445.25
2023-04-29T22:04:01.271Z,98460.59
2023-04-29T22:07:05.441Z,98460.59
2023-04-29T22:10:09.164Z,98464.63
2023-04-29T22:13:11.995Z,98466.50
2023-04-29T22:16:14.754Z,98462.44
2023-04-29T22:19:17.767Z,98465.66
2023-04-29T22:22:21.902Z,98454.59
2023-04-29T22:25:24.716Z,98459.69
2023-04-29T22:28:27.475Z,98455.13
2023-04-29T22:31:30.410Z,98456.19
2023-04-29T22:34:33.128Z,98461.59
2023-04-29T22:37:37.207Z,98465.91
2023-04-29T22:40:39.835Z,98469.13
2023-04-29T22:43:42.520Z,98476.41
2023-04-29T22:46:45.168Z,98473.44
2023-04-29T22:49:47.850Z,98468.03
2023-04-29T22:52:52.296Z,98477.72
2023-04-29T22:55:56.904Z,98481.28
2023-04-29T22:58:59.626Z,98476.97
2023-04-29T23:02:02.414Z,98476.19
2023-04-29T23:05:06.335Z,98472.41
2023-04-29T23:08:10.750Z,98474.81
2023-04-29T23:11:13.448Z,98474.03
2023-04-29T23:14:16.156Z,98475.66
2023-04-29T23:17:18.873Z,98471.06
2023-04-29T23:20:21.642Z,98471.34
2023-04-29T23:23:25.661Z,98468.19
2023-04-29T23:26:28.334Z,98467.91
2023-04-29T23:29:34.079Z,98474.09
2023-04-29T23:32:36.857Z,98469.78
2023-04-29T23:35:39.580Z,98473.03
2023-04-29T23:38:43.644Z,98475.75
2023-04-29T23:41:46.318Z,98473.34
2023-04-29T23:44:49.048Z,98474.97
2023-04-29T23:47:51.869Z,98482.22
2023-04-29T23:50:55.100Z,98484.63
2023-04-29T23:54:00.734Z,98484.34
2023-04-29T23:57:03.554Z,98485.16
